Time,TemperatureF,DewpointF,PressureIn,WindDirection,WindDirectionDegrees,WindSpeedMPH,WindSpeedGustMPH,Humidity,HourlyPrecipIn,Conditions,Clouds,dailyrainin,SoftwareType,DateUTC
2013-10-23 00:04:00,57.6,54.0,28.99,South,171,0.0,-999.0,87,-99.99,,,0.00,weatherlink.com 1.10,2013-10-22 23:04:00,
2013-10-23 00:19:00,57.4,54.0,28.98,SSW,210,0.0,-999.0,87,-99.99,,,0.00,weatherlink.com 1.10,2013-10-22 23:19:00,
2013-10-23 00:34:00,57.3,54.0,28.99,SSW,210,0.0,-999.0,87,-99.99,,,0.00,weatherlink.com 1.10,2013-10-22 23:34:00,
2013-10-23 00:49:00,57.2,53.0,28.99,SSW,210,0.0,-999.0,86,-99.99,,,0.00,weatherlink.com 1.10,2013-10-22 23:49:00,
2013-10-23 01:04:00,57.2,53.0,28.99,SSW,213,0.0,-999.0,86,-99.99,,,0.00,weatherlink.com 1.10,2013-10-23 00:04:00,
2013-10-23 01:19:00,57.2,53.0,28.99,SSW,213,0.0,-999.0,86,-99.99,,,0.00,weatherlink.com 1.10,2013-10-23 00:19:00,
2013-10-23 01:34:00,57.1,53.0,28.99,SSW,213,0.0,-999.0,86,-99.99,,,0.00,weatherlink.com 1.10,2013-10-23 00:34:00,
2013-10-23 01:49:00,56.9,53.0,29.00,SW,227,0.0,-999.0,86,-99.99,,,0.00,weatherlink.com 1.10,2013-10-23 00:49:00,
2013-10-23 02:04:00,56.7,53.0,29.00,SW,230,0.0,-999.0,87,-99.99,,,0.00,weatherlink.com 1.10,2013-10-23 01:04:00,
2013-10-23 02:19:00,56.6,53.0,29.00,West,262,0.0,-999.0,87,-99.99,,,0.00,weatherlink.com 1.10,2013-10-23 01:19:00,
2013-10-23 02:34:00,56.4,53.0,29.00,West,275,0.0,-999.0,88,-99.99,,,0.00,weatherlink.com 1.10,2013-10-23 01:34:00,
2013-10-23 02:49:00,56.3,53.0,29.01,WSW,253,0.0,-999.0,88,-99.99,,,0.00,weatherlink.com 1.10,2013-10-23 01:49:00,
2013-10-23 03:04:00,55.9,52.0,29.00,West,263,0.0,-999.0,88,-99.99,,,0.00,weatherlink.com 1.10,2013-10-23 02:04:00,
2013-10-23 03:19:00,55.3,52.0,29.01,West,263,0.0,-999.0,88,-99.99,,,0.00,weatherlink.com 1.10,2013-10-23 02:19:00,
2013-10-23 03:34:00,55.0,52.0,29.00,West,277,0.0,-999.0,89,-99.99,,,0.00,weatherlink.com 1.10,2013-10-23 02:34:00,
2013-10-23 03:49:00,55.0,52.0,29.01,WNW,290,0.0,-999.0,89,-99.99,,,0.00,weatherlink.com 1.10,2013-10-23 02:49:00,
2013-10-23 04:04:00,55.1,52.0,29.02,WNW,294,0.0,-999.0,89,-99.99,,,0.00,weatherlink.com 1.10,2013-10-23 03:04:00,
2013-10-23 04:19:00,55.0,52.0,29.02,WSW,258,0.0,-999.0,89,-99.99,,,0.00,weatherlink.com 1.10,2013-10-23 03:19:00,
2013-10-23 04:34:00,54.9,52.0,29.03,West,278,0.0,-999.0,90,-99.99,,,0.00,weatherlink.com 1.10,2013-10-23 03:34:00,
2013-10-23 04:49:00,54.8,52.0,29.04,WNW,295,0.0,-999.0,90,-99.99,,,0.00,weatherlink.com 1.10,2013-10-23 03:49:00,
2013-10-23 05:04:00,54.5,52.0,29.05,NW,319,0.0,-999.0,90,-99.99,,,0.00,weatherlink.com 1.10,2013-10-23 04:04:00,
2013-10-23 05:20:00,54.2,51.0,29.06,West,274,0.0,-999.0,89,-99.99,,,0.00,weatherlink.com 1.10,2013-10-23 04:20:00,
2013-10-23 05:35:00,54.0,51.0,29.07,NW,312,0.0,-999.0,88,-99.99,,,0.00,weatherlink.com 1.10,2013-10-23 04:35:00,
2013-10-23 05:50:00,53.6,51.0,29.09,NW,313,0.0,-999.0,89,-99.99,,,0.00,weatherlink.com 1.10,2013-10-23 04:50:00,
2013-10-23 06:05:00,53.0,50.0,29.10,NW,319,0.0,-999.0,90,-99.99,,,0.00,weatherlink.com 1.10,2013-10-23 05:05:00,
2013-10-23 06:20:00,52.8,49.0,29.12,WSW,243,0.0,-999.0,88,-99.99,,,0.00,weatherlink.com 1.10,2013-10-23 05:20:00,
2013-10-23 06:35:00,52.7,49.0,29.13,WNW,301,0.0,-999.0,86,-99.99,,,0.00,weatherlink.com 1.10,2013-10-23 05:35:00,
2013-10-23 06:50:00,52.2,48.0,29.14,WSW,253,0.0,-999.0,85,-99.99,,,0.00,weatherlink.com 1.10,2013-10-23 05:50:00,
2013-10-23 07:05:00,-999.0,-99.9,29.14,North,-999,-999.0,-999.0,-999,-99.99,,,0.00,weatherlink.com 1.10,2013-10-23 06:05:00,
2013-10-23 07:20:00,-999.0,-99.9,29.16,North,-999,-999.0,-999.0,-999,-99.99,,,0.00,weatherlink.com 1.10,2013-10-23 06:20:00,
2013-10-23 07:35:00,-999.0,-99.9,29.16,North,-999,-999.0,-999.0,-999,-99.99,,,0.00,weatherlink.com 1.10,2013-10-23 06:35:00,
2013-10-23 07:50:00,-999.0,-99.9,29.18,North,-999,-999.0,-999.0,-999,-99.99,,,0.00,weatherlink.com 1.10,2013-10-23 06:50:00,
2013-10-23 08:05:00,-999.0,-99.9,29.19,North,-999,-999.0,-999.0,-999,-99.99,,,0.00,weatherlink.com 1.10,2013-10-23 07:05:00,
2013-10-23 08:20:00,-999.0,-99.9,29.21,North,-999,-999.0,-999.0,-999,-99.99,,,0.00,weatherlink.com 1.10,2013-10-23 07:20:00,
2013-10-23 08:35:00,-999.0,-99.9,29.22,North,-999,-999.0,-999.0,-999,-99.99,,,0.00,weatherlink.com 1.10,2013-10-23 07:35:00,
2013-10-23 08:50:00,-999.0,-99.9,29.23,North,-999,-999.0,-999.0,-999,-99.99,,,0.00,weatherlink.com 1.10,2013-10-23 07:50:00,
2013-10-23 09:05:00,49.7,45.0,29.24,West,270,0.0,-999.0,85,-99.99,,,0.00,weatherlink.com 1.10,2013-10-23 08:05:00,
2013-10-23 09:20:00,50.2,46.0,29.25,WNW,284,0.0,-999.0,84,-99.99,,,0.00,weatherlink.com 1.10,2013-10-23 08:20:00,
2013-10-23 09:35:00,50.4,45.0,29.27,West,281,0.0,-999.0,83,-99.99,,,0.00,weatherlink.com 1.10,2013-10-23 08:35:00,
2013-10-23 09:50:00,50.6,46.0,29.28,West,280,0.0,-999.0,83,-99.99,,,0.00,weatherlink.com 1.10,2013-10-23 08:50:00,
2013-10-23 10:05:00,50.8,46.0,29.29,WNW,284,0.0,-999.0,82,-99.99,,,0.00,weatherlink.com 1.10,2013-10-23 09:05:00,
2013-10-23 10:21:00,51.0,45.0,29.30,West,265,0.0,-999.0,81,-99.99,,,0.00,weatherlink.com 1.10,2013-10-23 09:21:00,
2013-10-23 10:36:00,51.2,45.0,29.31,West,275,0.0,-999.0,80,-99.99,,,0.00,weatherlink.com 1.10,2013-10-23 09:36:00,
2013-10-23 10:51:00,51.4,45.0,29.32,WNW,296,0.0,-999.0,79,-99.99,,,0.00,weatherlink.com 1.10,2013-10-23 09:51:00,
2013-10-23 11:06:00,51.5,45.0,29.33,West,263,0.0,-999.0,77,-99.99,,,0.00,weatherlink.com 1.10,2013-10-23 10:06:00,
2013-10-23 11:21:00,52.0,45.0,29.35,WNW,301,0.0,-999.0,76,-99.99,,,0.00,weatherlink.com 1.10,2013-10-23 10:21:00,
2013-10-23 11:36:00,52.3,44.0,29.36,West,269,0.0,-999.0,74,-99.99,,,0.00,weatherlink.com 1.10,2013-10-23 10:36:00,
2013-10-23 11:51:00,52.6,44.0,29.36,West,275,0.0,-999.0,73,-99.99,,,0.00,weatherlink.com 1.10,2013-10-23 10:51:00,
2013-10-23 12:06:00,52.8,44.0,29.38,WNW,301,0.0,-999.0,71,-99.99,,,0.00,weatherlink.com 1.10,2013-10-23 11:06:00,
2013-10-23 12:21:00,53.0,43.0,29.38,WSW,238,0.0,-999.0,69,-99.99,,,0.00,weatherlink.com 1.10,2013-10-23 11:21:00,
2013-10-23 12:36:00,53.2,43.0,29.38,West,280,0.0,-999.0,68,-99.99,,,0.00,weatherlink.com 1.10,2013-10-23 11:36:00,
2013-10-23 12:51:00,53.4,42.0,29.39,WSW,254,0.0,-999.0,65,-99.99,,,0.00,weatherlink.com 1.10,2013-10-23 11:51:00,
2013-10-23 13:06:00,53.5,42.0,29.40,NW,306,0.0,-999.0,65,-99.99,,,0.00,weatherlink.com 1.10,2013-10-23 12:06:00,
2013-10-23 13:21:00,53.8,41.0,29.40,West,263,0.0,-999.0,62,-99.99,,,0.00,weatherlink.com 1.10,2013-10-23 12:21:00,
2013-10-23 13:36:00,54.3,40.0,29.41,NW,311,0.0,-999.0,60,-99.99,,,0.00,weatherlink.com 1.10,2013-10-23 12:36:00,
2013-10-23 13:51:00,54.4,40.0,29.42,WNW,289,0.0,-999.0,58,-99.99,,,0.00,weatherlink.com 1.10,2013-10-23 12:51:00,
2013-10-23 14:06:00,54.2,40.0,29.43,WSW,256,0.0,-999.0,60,-99.99,,,0.00,weatherlink.com 1.10,2013-10-23 13:06:00,
2013-10-23 14:21:00,54.5,41.0,29.43,WNW,298,0.0,-999.0,61,-99.99,,,0.00,weatherlink.com 1.10,2013-10-23 13:21:00,
2013-10-23 14:36:00,54.5,41.0,29.45,WNW,287,0.0,-999.0,60,-99.99,,,0.00,weatherlink.com 1.10,2013-10-23 13:36:00,
2013-10-23 14:51:00,51.5,44.0,29.46,NW,305,0.0,-999.0,75,-99.99,,,0.00,weatherlink.com 1.10,2013-10-23 13:51:00,
2013-10-23 15:06:00,51.8,43.0,29.47,West,277,0.0,-999.0,73,-99.99,,,0.00,weatherlink.com 1.10,2013-10-23 14:06:00,
2013-10-23 15:21:00,53.1,44.0,29.47,West,279,0.0,-999.0,70,-99.99,,,0.00,weatherlink.com 1.10,2013-10-23 14:21:00,
2013-10-23 15:36:00,53.8,43.0,29.48,WSW,258,0.0,-999.0,67,-99.99,,,0.00,weatherlink.com 1.10,2013-10-23 14:36:00,
2013-10-23 15:51:00,52.9,43.0,29.49,WSW,255,0.0,-999.0,70,-99.99,,,0.00,weatherlink.com 1.10,2013-10-23 14:51:00,
2013-10-23 16:06:00,53.1,42.0,29.49,WSW,242,0.0,-999.0,67,-99.99,,,0.00,weatherlink.com 1.10,2013-10-23 15:06:00,
2013-10-23 16:21:00,53.3,43.0,29.50,West,278,0.0,-999.0,68,-99.99,,,0.00,weatherlink.com 1.10,2013-10-23 15:21:00,
2013-10-23 16:36:00,53.5,43.0,29.51,West,263,0.0,-999.0,68,-99.99,,,0.00,weatherlink.com 1.10,2013-10-23 15:36:00,
2013-10-23 16:51:00,53.7,43.0,29.52,WSW,251,0.0,-999.0,67,-99.99,,,0.00,weatherlink.com 1.10,2013-10-23 15:51:00,
2013-10-23 17:06:00,53.4,43.0,29.52,West,277,0.0,-999.0,67,-99.99,,,0.00,weatherlink.com 1.10,2013-10-23 16:06:00,
2013-10-23 17:21:00,53.3,43.0,29.54,West,262,0.0,-999.0,68,-99.99,,,0.00,weatherlink.com 1.10,2013-10-23 16:21:00,
2013-10-23 17:37:00,53.1,43.0,29.54,WSW,248,0.0,-999.0,68,-99.99,,,0.00,weatherlink.com 1.10,2013-10-23 16:37:00,
2013-10-23 17:52:00,52.7,43.0,29.55,WSW,256,0.0,-999.0,69,-99.99,,,0.00,weatherlink.com 1.10,2013-10-23 16:52:00,
2013-10-23 18:07:00,52.2,42.0,29.56,West,272,0.0,-999.0,68,-99.99,,,0.00,weatherlink.com 1.10,2013-10-23 17:07:00,
2013-10-23 18:22:00,51.7,42.0,29.57,West,274,0.0,-999.0,70,-99.99,,,0.00,weatherlink.com 1.10,2013-10-23 17:22:00,
2013-10-23 18:37:00,51.2,42.0,29.58,West,274,0.0,-999.0,72,-99.99,,,0.00,weatherlink.com 1.10,2013-10-23 17:37:00,
2013-10-23 18:52:00,50.9,43.0,29.59,West,281,0.0,-999.0,73,-99.99,,,0.00,weatherlink.com 1.10,2013-10-23 17:52:00,
2013-10-23 19:07:00,50.6,42.0,29.59,WSW,240,0.0,-999.0,73,-99.99,,,0.00,weatherlink.com 1.10,2013-10-23 18:07:00,
2013-10-23 19:22:00,50.3,42.0,29.60,WSW,240,0.0,-999.0,74,-99.99,,,0.00,weatherlink.com 1.10,2013-10-23 18:22:00,
2013-10-23 19:37:00,50.3,42.0,29.61,WSW,253,0.0,-999.0,74,-99.99,,,0.00,weatherlink.com 1.10,2013-10-23 18:37:00,
2013-10-23 19:52:00,50.1,42.0,29.62,West,268,0.0,-999.0,74,-99.99,,,0.00,weatherlink.com 1.10,2013-10-23 18:52:00,
2013-10-23 20:07:00,50.0,42.0,29.63,West,268,0.0,-999.0,74,-99.99,,,0.00,weatherlink.com 1.10,2013-10-23 19:07:00,
2013-10-23 20:22:00,49.9,42.0,29.62,West,269,0.0,-999.0,75,-99.99,,,0.00,weatherlink.com 1.10,2013-10-23 19:22:00,
2013-10-23 20:37:00,49.7,42.0,29.63,West,263,0.0,-999.0,75,-99.99,,,0.00,weatherlink.com 1.10,2013-10-23 19:37:00,
2013-10-23 20:52:00,49.6,42.0,29.64,WSW,257,0.0,-999.0,75,-99.99,,,0.00,weatherlink.com 1.10,2013-10-23 19:52:00,
2013-10-23 21:07:00,49.6,42.0,29.64,West,267,0.0,-999.0,75,-99.99,,,0.00,weatherlink.com 1.10,2013-10-23 20:07:00,
2013-10-23 21:22:00,49.5,42.0,29.65,WSW,246,0.0,-999.0,76,-99.99,,,0.00,weatherlink.com 1.10,2013-10-23 20:22:00,
2013-10-23 21:37:00,49.4,42.0,29.66,West,262,0.0,-999.0,76,-99.99,,,0.00,weatherlink.com 1.10,2013-10-23 20:37:00,
2013-10-23 21:52:00,49.3,42.0,29.66,West,260,0.0,-999.0,77,-99.99,,,0.00,weatherlink.com 1.10,2013-10-23 20:52:00,
2013-10-23 22:08:00,49.2,42.0,29.66,West,263,0.0,-999.0,77,-99.99,,,0.00,weatherlink.com 1.10,2013-10-23 21:08:00,
2013-10-23 22:22:00,49.1,42.0,29.67,West,267,0.0,-999.0,77,-99.99,,,0.00,weatherlink.com 1.10,2013-10-23 21:22:00,
2013-10-23 22:37:00,48.8,42.0,29.67,WSW,253,0.0,-999.0,78,-99.99,,,0.00,weatherlink.com 1.10,2013-10-23 21:37:00,
2013-10-23 22:52:00,48.5,42.0,29.68,WSW,253,0.0,-999.0,78,-99.99,,,0.00,weatherlink.com 1.10,2013-10-23 21:52:00,
2013-10-23 23:07:00,48.1,42.0,29.68,WSW,253,0.0,-999.0,79,-99.99,,,0.00,weatherlink.com 1.10,2013-10-23 22:07:00,
2013-10-23 23:22:00,47.7,42.0,29.69,WSW,253,0.0,-999.0,80,-99.99,,,0.00,weatherlink.com 1.10,2013-10-23 22:22:00,
2013-10-23 23:37:00,47.2,42.0,29.70,WSW,253,0.0,-999.0,81,-99.99,,,0.00,weatherlink.com 1.10,2013-10-23 22:37:00,
2013-10-23 23:52:00,46.7,42.0,29.70,WSW,253,0.0,-999.0,82,-99.99,,,0.00,weatherlink.com 1.10,2013-10-23 22:52:00,